Time;durP1;ratioP1;P1;durP2;ratioP2;P2;SDS_P1;SDS_P2;PMS_P1;PMS_P2;Temp;Humidity;BMP_temperature;BMP_pressure;BME280_temperature;BME280_humidity;BME280_pressure;Samples;Min_cycle;Max_cycle;Signal;HPM_P1;HPM_P2
2024/03/12 00:00:06;;;;;;;26.73;22.50;;;;;;;8.11;100.00;100945.66;7738739;23;20215;-69
2024/03/12 00:03:27;;;;;;;25.63;22.83;;;;;;;8.15;100.00;100956.03;7720747;23;20219;-68
2024/03/12 00:06:50;;;;;;;31.27;24.87;;;;;;;8.21;100.00;100952.88;7725265;23;20207;-69
2024/03/12 00:10:15;;;;;;;25.70;21.77;;;;;;;8.21;100.00;100952.00;7734338;23;20222;-69
2024/03/12 00:13:36;;;;;;;23.20;20.03;;;;;;;8.23;100.00;100956.28;7739074;23;20211;-68
2024/03/12 00:16:57;;;;;;;25.03;22.40;;;;;;;8.17;100.00;100945.16;7727931;23;20215;-69
2024/03/12 00:20:24;;;;;;;23.47;20.47;;;;;;;8.22;100.00;100953.75;7730337;23;20214;-69
2024/03/12 00:23:46;;;;;;;27.67;23.73;;;;;;;8.23;100.00;100953.59;7736546;22;20293;-69
2024/03/12 00:27:09;;;;;;;22.93;19.43;;;;;;;8.23;100.00;100953.59;7733626;23;20561;-69
2024/03/12 00:30:30;;;;;;;32.17;21.00;;;;;;;8.39;100.00;100955.97;7724872;23;20637;-69
2024/03/12 00:33:51;;;;;;;29.03;22.63;;;;;;;8.37;100.00;100961.47;7737683;23;20207;-69
2024/03/12 00:37:12;;;;;;;23.23;20.63;;;;;;;8.26;100.00;100963.28;7729747;23;20219;-69
2024/03/12 00:40:36;;;;;;;24.53;21.03;;;;;;;8.26;100.00;100957.94;7724172;23;20245;-69
2024/03/12 00:43:56;;;;;;;29.07;23.73;;;;;;;8.05;100.00;100955.03;7736969;23;20257;-68
2024/03/12 00:47:17;;;;;;;26.63;22.73;;;;;;;7.99;100.00;100964.41;7724793;23;20215;-69
2024/03/12 00:50:39;;;;;;;30.67;21.80;;;;;;;7.90;100.00;100973.19;7723682;23;20214;-69
2024/03/12 00:54:01;;;;;;;28.07;23.73;;;;;;;7.93;100.00;100950.59;7714126;23;20799;-68
2024/03/12 00:57:27;;;;;;;26.73;23.00;;;;;;;7.83;100.00;100973.75;7729947;23;20211;-69
2024/03/12 01:00:48;;;;;;;28.67;23.53;;;;;;;7.85;100.00;100974.47;7708553;23;20219;-68
2024/03/12 01:04:11;;;;;;;25.60;22.00;;;;;;;7.97;100.00;100965.47;7738273;23;20570;-69
2024/03/12 01:07:33;;;;;;;31.03;22.37;;;;;;;8.06;100.00;100972.84;7727222;23;20219;-69
2024/03/12 01:10:53;;;;;;;31.30;24.83;;;;;;;8.08;100.00;100971.75;7726163;23;20435;-70
2024/03/12 01:14:17;;;;;;;22.93;20.60;;;;;;;8.04;100.00;100975.66;7738631;23;20207;-70
2024/03/12 01:17:39;;;;;;;26.57;23.77;;;;;;;8.00;100.00;100967.94;7728416;23;20223;-69
2024/03/12 01:20:59;;;;;;;32.73;25.13;;;;;;;8.11;100.00;100964.44;7731942;23;20223;-70
2024/03/12 01:24:20;;;;;;;26.80;22.03;;;;;;;8.13;100.00;100960.66;7736444;23;20207;-70
2024/03/12 01:27:42;;;;;;;24.87;20.67;;;;;;;8.12;100.00;100963.44;7732328;23;20840;-68
2024/03/12 01:31:05;;;;;;;24.23;21.57;;;;;;;8.07;100.00;100961.97;7721250;23;20215;-69
2024/03/12 01:34:26;;;;;;;26.33;21.90;;;;;;;7.91;100.00;100960.59;7737389;23;20215;-69
2024/03/12 01:37:49;;;;;;;33.90;23.40;;;;;;;7.90;100.00;100965.13;7731051;23;20203;-69
2024/03/12 01:41:10;;;;;;;31.07;23.10;;;;;;;7.76;100.00;100976.03;7686367;23;20219;-69
2024/03/12 01:44:31;;;;;;;27.17;24.27;;;;;;;7.76;100.00;100978.72;7742098;23;20207;-69
2024/03/12 01:47:56;;;;;;;29.90;24.03;;;;;;;7.69;100.00;100976.63;7729099;23;20215;-68
2024/03/12 01:51:17;;;;;;;26.43;23.07;;;;;;;7.66;100.00;100982.19;7728564;23;20258;-69
2024/03/12 01:54:38;;;;;;;25.17;21.23;;;;;;;7.57;100.00;100986.44;7738385;23;20258;-69
2024/03/12 01:58:01;;;;;;;26.53;23.37;;;;;;;7.53;100.00;100978.75;7725988;23;20294;-69
2024/03/12 02:01:22;;;;;;;23.87;21.23;;;;;;;7.59;100.00;100980.97;7728639;23;20215;-68
2024/03/12 02:04:45;;;;;;;25.93;23.17;;;;;;;7.55;100.00;100984.84;7738959;23;20215;-69
2024/03/12 02:08:06;;;;;;;26.17;22.60;;;;;;;7.39;100.00;100979.75;7735687;23;20211;-69
2024/03/12 02:11:27;;;;;;;27.30;23.37;;;;;;;7.30;100.00;100984.94;7728910;23;20219;-69
2024/03/12 02:14:48;;;;;;;22.87;20.50;;;;;;;7.20;100.00;100980.25;7739932;23;20211;-69
2024/03/12 02:18:09;;;;;;;29.77;23.63;;;;;;;7.27;100.00;100986.03;7735875;23;20211;-68
2024/03/12 02:21:32;;;;;;;25.87;21.87;;;;;;;7.31;100.00;100983.97;7730983;23;20298;-69
2024/03/12 02:24:54;;;;;;;38.83;24.37;;;;;;;7.21;100.00;100987.34;7738700;23;20639;-69
2024/03/12 02:28:16;;;;;;;25.00;22.23;;;;;;;7.20;100.00;100985.63;7741091;23;20207;-69
2024/03/12 02:31:37;;;;;;;23.03;20.63;;;;;;;7.22;100.00;100986.34;7731224;23;20210;-68
2024/03/12 02:34:58;;;;;;;26.87;22.97;;;;;;;7.20;100.00;100990.13;7738584;23;20211;-69
2024/03/12 02:38:19;;;;;;;27.20;20.93;;;;;;;7.18;100.00;100986.69;7712403;23;20261;-69
2024/03/12 02:41:42;;;;;;;26.07;23.23;;;;;;;7.15;100.00;100987.75;7729493;23;20219;-69
2024/03/12 02:45:03;;;;;;;26.67;23.30;;;;;;;7.16;100.00;100994.84;7737476;23;20219;-69
2024/03/12 02:48:25;;;;;;;27.10;21.57;;;;;;;7.09;100.00;100990.91;7731736;23;20222;-68
2024/03/12 02:51:46;;;;;;;27.60;23.53;;;;;;;7.06;100.00;100992.94;7730422;23;20207;-68
2024/03/12 02:55:08;;;;;;;28.30;22.57;;;;;;;7.01;100.00;100997.78;7732699;23;20257;-68
2024/03/12 02:58:30;;;;;;;34.83;23.50;;;;;;;6.96;100.00;100992.78;7736409;23;20207;-69
2024/03/12 03:01:51;;;;;;;24.33;20.80;;;;;;;6.99;100.00;100986.31;7726289;23;20215;-68
2024/03/12 03:05:12;;;;;;;26.47;23.57;;;;;;;6.86;100.00;101001.56;7731287;23;20212;-68
2024/03/12 03:08:33;;;;;;;24.43;20.30;;;;;;;6.86;100.00;100998.91;7709853;23;20294;-69
2024/03/12 03:11:55;;;;;;;24.00;19.37;;;;;;;6.76;100.00;101011.25;7728542;22;20238;-69
2024/03/12 03:15:18;;;;;;;24.00;19.67;;;;;;;6.64;100.00;101004.91;7732916;23;20219;-68
2024/03/12 03:18:39;;;;;;;22.57;20.23;;;;;;;6.52;100.00;101013.81;7710439;23;20211;-69
2024/03/12 03:21:59;;;;;;;24.03;21.60;;;;;;;6.53;100.00;101012.00;7693099;23;20215;-69
2024/03/12 03:25:20;;;;;;;21.60;19.37;;;;;;;6.54;100.00;101011.00;7727212;23;20273;-69
2024/03/12 03:28:41;;;;;;;23.50;20.63;;;;;;;6.49;100.00;101007.81;7735454;23;20211;-69
2024/03/12 03:32:06;;;;;;;23.50;19.87;;;;;;;6.43;100.00;101019.78;7729541;23;20530;-68
2024/03/12 03:35:29;;;;;;;22.93;20.17;;;;;;;6.33;100.00;101019.59;7727636;23;20243;-68
2024/03/12 03:38:50;;;;;;;22.70;20.60;;;;;;;6.29;100.00;101014.53;7739387;23;20613;-68
2024/03/12 03:42:11;;;;;;;21.67;19.43;;;;;;;6.36;100.00;101016.69;7728293;23;20581;-68
2024/03/12 03:45:32;;;;;;;22.13;18.37;;;;;;;6.33;100.00;101013.38;7731292;23;21121;-68
2024/03/12 03:48:55;;;;;;;20.90;18.80;;;;;;;6.25;100.00;101013.91;7737001;23;20294;-69
2024/03/12 03:52:17;;;;;;;22.60;19.07;;;;;;;6.25;100.00;101021.94;7731322;23;20286;-69
2024/03/12 03:55:38;;;;;;;19.60;17.57;;;;;;;6.23;100.00;101020.31;7728989;23;20444;-69
2024/03/12 03:59:01;;;;;;;20.37;18.37;;;;;;;6.09;100.00;101029.28;7739734;23;20211;-69
2024/03/12 04:02:22;;;;;;;22.23;20.07;;;;;;;6.18;100.00;101030.47;7709951;23;20302;-68
2024/03/12 04:05:44;;;;;;;20.43;18.40;;;;;;;6.14;100.00;101028.97;7728306;23;20577;-69
2024/03/12 04:09:05;;;;;;;20.23;18.07;;;;;;;6.00;100.00;101034.41;7741467;23;20489;-68
2024/03/12 04:12:25;;;;;;;20.70;18.90;;;;;;;5.91;100.00;101035.00;7731348;23;20444;-68
2024/03/12 04:15:47;;;;;;;19.33;17.43;;;;;;;5.86;100.00;101039.84;7727500;23;20491;-68
2024/03/12 04:19:09;;;;;;;20.37;18.17;;;;;;;5.96;100.00;101040.94;7738586;23;20241;-69
2024/03/12 04:22:32;;;;;;;18.77;16.87;;;;;;;6.06;100.00;101042.88;7729053;23;20808;-69
2024/03/12 04:25:53;;;;;;;19.40;17.40;;;;;;;6.07;100.00;101033.03;7731657;23;20211;-68
2024/03/12 04:29:13;;;;;;;19.77;17.77;;;;;;;6.11;100.00;101039.91;7740166;23;20215;-69
2024/03/12 04:32:35;;;;;;;22.83;20.47;;;;;;;6.40;100.00;101047.63;7708222;23;20215;-69
2024/03/12 04:35:56;;;;;;;17.90;16.10;;;;;;;6.39;100.00;101047.75;7698045;23;20306;-69
2024/03/12 04:39:30;;;;;;;20.37;18.37;;;;;;;6.47;100.00;101051.63;7734208;23;20211;-69
2024/03/12 04:42:53;;;;;;;19.33;16.77;;;;;;;6.44;100.00;101048.31;7729725;23;20207;-69
2024/03/12 04:46:14;;;;;;;20.27;18.20;;;;;;;6.39;100.00;101048.63;7728946;23;20211;-69
2024/03/12 04:49:36;;;;;;;23.00;17.67;;;;;;;6.42;100.00;101058.25;7737104;23;20211;-69
2024/03/12 04:52:57;;;;;;;19.87;17.77;;;;;;;6.58;100.00;101055.38;7722730;23;20211;-69
2024/03/12 04:56:20;;;;;;;19.33;17.43;;;;;;;6.63;100.00;101059.47;7728691;23;20215;-69
2024/03/12 04:59:41;;;;;;;18.40;16.63;;;;;;;6.66;100.00;101053.00;7738583;23;20248;-68
2024/03/12 05:03:02;;;;;;;17.03;15.33;;;;;;;6.63;100.00;101048.75;7721590;23;20210;-69
2024/03/12 05:06:23;;;;;;;17.93;16.03;;;;;;;6.87;100.00;101059.53;7729131;23;20294;-69
2024/03/12 05:09:44;;;;;;;35.60;31.83;;;;;;;6.81;100.00;101058.16;7737789;23;20288;-68
2024/03/12 05:13:08;;;;;;;24.13;21.33;;;;;;;6.62;100.00;101064.91;7735846;23;20309;-69
2024/03/12 05:16:29;;;;;;;19.73;17.70;;;;;;;6.51;100.00;101064.81;7724437;23;20215;-68
2024/03/12 05:19:50;;;;;;;18.27;16.50;;;;;;;6.44;100.00;101070.59;7723654;23;20215;-69
2024/03/12 05:23:12;;;;;;;20.53;18.53;;;;;;;6.51;100.00;101081.72;7737996;23;20290;-69
2024/03/12 05:26:36;;;;;;;36.70;33.10;;;;;;;6.45;100.00;101077.63;7730265;23;20207;-68
2024/03/12 05:29:59;;;;;;;50.27;45.07;;;;;;;6.33;100.00;101089.19;7738367;23;20250;-69
2024/03/12 05:33:27;;;;;;;23.13;20.83;;;;;;;6.35;100.00;101091.75;7707996;22;20207;-68
2024/03/12 05:36:49;;;;;;;20.73;18.70;;;;;;;6.49;100.00;101098.88;7725661;23;20214;-68
2024/03/12 05:40:16;;;;;;;26.30;23.63;;;;;;;6.57;100.00;101107.22;7728873;23;20211;-69
2024/03/12 05:50:56;;;;;;;18.77;16.87;;;;;;;6.47;100.00;101111.50;7731963;23;20214;-68
2024/03/12 05:54:17;;;;;;;15.90;14.40;;;;;;;6.50;100.00;101116.63;7738142;23;20263;-68
2024/03/12 05:57:38;;;;;;;16.63;15.07;;;;;;;6.62;100.00;101105.94;7732404;23;20561;-68
2024/03/12 06:00:59;;;;;;;17.33;15.67;;;;;;;6.68;100.00;101112.69;7724160;23;20241;-68
2024/03/12 06:04:21;;;;;;;17.00;15.30;;;;;;;6.63;100.00;101121.06;7738698;23;20211;-69
2024/03/12 06:07:44;;;;;;;17.47;15.87;;;;;;;6.64;100.00;101108.50;7727775;23;20214;-69
2024/03/12 06:11:07;;;;;;;15.80;14.40;;;;;;;6.64;100.00;101128.13;7729063;23;20215;-69
2024/03/12 06:14:28;;;;;;;16.87;15.30;;;;;;;6.63;100.00;101128.22;7739828;23;20306;-69
2024/03/12 06:17:49;;;;;;;17.67;15.73;;;;;;;6.87;100.00;101129.22;7722659;23;20210;-69
2024/03/12 06:21:11;;;;;;;18.73;16.83;;;;;;;6.90;100.00;101131.69;7711305;23;20215;-69
2024/03/12 06:24:32;;;;;;;18.67;16.77;;;;;;;6.93;100.00;101134.13;7739925;23;20214;-69
2024/03/12 06:27:53;;;;;;;16.37;14.77;;;;;;;7.02;100.00;101138.88;7732313;23;20211;-69
2024/03/12 06:31:14;;;;;;;19.07;17.13;;;;;;;6.97;100.00;101143.69;7714835;23;20418;-68
2024/03/12 06:34:35;;;;;;;16.20;14.70;;;;;;;6.96;100.00;101142.84;7741879;23;20211;-69
2024/03/12 06:37:59;;;;;;;16.53;14.83;;;;;;;7.60;100.00;101149.84;7727207;23;20215;-70
2024/03/12 06:41:20;;;;;;;16.10;14.20;;;;;;;7.90;100.00;101153.00;7707736;23;20215;-70
2024/03/12 06:44:43;;;;;;;18.07;14.53;;;;;;;7.99;100.00;101156.81;7714212;22;20555;-70
2024/03/12 06:48:06;;;;;;;16.83;15.30;;;;;;;7.44;100.00;101161.78;7725204;23;20215;-69
2024/03/12 06:51:31;;;;;;;16.70;15.23;;;;;;;7.50;100.00;101156.84;7731475;23;20215;-69
2024/03/12 06:54:53;;;;;;;16.23;14.53;;;;;;;7.45;100.00;101158.16;7739536;23;20310;-69
2024/03/12 06:58:18;;;;;;;16.97;15.23;;;;;;;7.37;100.00;101163.19;7723093;23;20298;-69
2024/03/12 07:01:41;;;;;;;17.33;15.63;;;;;;;7.31;100.00;101158.25;7720006;22;20207;-69
2024/03/12 07:05:02;;;;;;;18.17;16.37;;;;;;;7.34;100.00;101163.41;7720906;23;20207;-70
2024/03/12 07:08:25;;;;;;;17.53;15.83;;;;;;;7.47;100.00;101161.59;7736517;23;20215;-69
2024/03/12 07:11:47;;;;;;;15.47;13.70;;;;;;;7.24;100.00;101163.19;7729771;23;20234;-70
2024/03/12 07:15:11;;;;;;;17.50;15.03;;;;;;;7.19;100.00;101168.91;7734733;23;20681;-69
2024/03/12 07:18:31;;;;;;;18.53;15.10;;;;;;;6.98;100.00;101175.75;7733222;23;20283;-69
2024/03/12 07:21:54;;;;;;;21.20;17.17;;;;;;;7.10;100.00;101168.66;7728272;23;20811;-70
2024/03/12 07:25:16;;;;;;;17.97;15.77;;;;;;;7.07;100.00;101174.25;7732858;23;20234;-69
2024/03/12 07:28:39;;;;;;;19.87;16.40;;;;;;;7.23;100.00;101182.94;7736271;23;20254;-69
2024/03/12 07:32:01;;;;;;;17.20;15.50;;;;;;;7.45;100.00;101174.25;7725596;23;20286;-69
2024/03/12 07:35:22;;;;;;;19.57;17.07;;;;;;;7.45;100.00;101187.66;7729614;23;20473;-69
2024/03/12 07:38:44;;;;;;;19.47;16.87;;;;;;;7.50;100.00;101183.69;7735133;23;20219;-68
2024/03/12 07:42:09;;;;;;;16.80;13.80;;;;;;;7.58;100.00;101188.47;7730029;23;20254;-70
2024/03/12 07:45:31;;;;;;;19.13;15.80;;;;;;;7.58;100.00;101183.97;7732067;23;20864;-68
2024/03/12 07:48:52;;;;;;;23.93;17.47;;;;;;;7.62;100.00;101185.47;7735259;23;20214;-69
2024/03/12 07:52:14;;;;;;;20.43;17.27;;;;;;;7.71;100.00;101189.31;7729790;23;20219;-70
2024/03/12 07:55:35;;;;;;;20.17;16.67;;;;;;;7.64;100.00;101188.03;7731280;23;20454;-69
2024/03/12 07:58:56;;;;;;;19.00;14.30;;;;;;;7.71;100.00;101184.81;7737331;23;20215;-71
2024/03/12 08:02:21;;;;;;;20.93;17.70;;;;;;;7.70;100.00;101195.66;7724540;23;20210;-70
2024/03/12 08:05:43;;;;;;;18.77;16.80;;;;;;;7.83;100.00;101196.47;7726798;23;20215;-69
2024/03/12 08:09:04;;;;;;;17.93;15.77;;;;;;;7.89;100.00;101196.91;7737637;23;20215;-69
2024/03/12 08:12:25;;;;;;;17.40;15.27;;;;;;;8.00;100.00;101202.34;7730308;23;20211;-71
2024/03/12 08:15:45;;;;;;;24.47;15.30;;;;;;;7.73;100.00;101200.81;7728421;23;20211;-69
2024/03/12 08:19:10;;;;;;;19.33;17.30;;;;;;;7.91;100.00;101213.75;7737278;23;20210;-69
2024/03/12 08:22:30;;;;;;;19.17;16.03;;;;;;;8.04;100.00;101208.34;7731013;23;20298;-69
2024/03/12 08:25:51;;;;;;;18.77;15.50;;;;;;;7.83;100.00;101210.78;7733063;23;20219;-69
2024/03/12 08:29:14;;;;;;;17.67;15.23;;;;;;;7.93;100.00;101217.19;7739799;23;20219;-69
2024/03/12 08:32:36;;;;;;;19.30;14.13;;;;;;;7.82;100.00;101216.25;7728427;23;20215;-70
2024/03/12 08:35:58;;;;;;;15.10;13.60;;;;;;;7.79;100.00;101224.50;7730804;23;20317;-70
2024/03/12 08:39:21;;;;;;;16.93;13.47;;;;;;;7.75;100.00;101231.06;7738331;23;20211;-69
2024/03/12 08:42:43;;;;;;;14.70;13.00;;;;;;;7.78;100.00;101223.66;7730801;23;20882;-69
2024/03/12 08:46:05;;;;;;;13.17;11.87;;;;;;;7.87;100.00;101228.38;7731530;23;20206;-69
2024/03/12 08:49:26;;;;;;;15.80;13.60;;;;;;;8.09;100.00;101233.06;7736591;23;20301;-70
2024/03/12 08:52:48;;;;;;;24.47;14.27;;;;;;;8.20;100.00;101235.78;7734181;23;20562;-70
2024/03/12 08:56:10;;;;;;;16.07;13.03;;;;;;;8.34;100.00;101241.06;7731491;23;20210;-70
2024/03/12 08:59:30;;;;;;;18.80;13.67;;;;;;;8.31;100.00;101243.09;7715285;23;20533;-69
2024/03/12 09:02:51;;;;;;;16.27;14.67;;;;;;;8.27;100.00;101241.59;7711051;23;20211;-69
2024/03/12 09:06:12;;;;;;;16.37;13.60;;;;;;;8.08;100.00;101250.97;7726101;23;20475;-69
2024/03/12 09:09:34;;;;;;;19.30;12.83;;;;;;;8.28;100.00;101246.03;7738828;23;20219;-69
2024/03/12 09:12:56;;;;;;;14.80;13.23;;;;;;;8.20;100.00;101256.44;7734569;22;20253;-70
2024/03/12 09:16:17;;;;;;;14.13;12.27;;;;;;;8.28;100.00;101249.53;7721499;23;20283;-69
2024/03/12 09:19:38;;;;;;;17.37;15.00;;;;;;;8.29;100.00;101253.97;7743106;23;20211;-69
2024/03/12 09:23:00;;;;;;;19.53;14.27;;;;;;;8.49;100.00;101257.88;7732236;23;20526;-70
2024/03/12 09:26:22;;;;;;;15.50;13.90;;;;;;;8.59;100.00;101251.72;7729797;23;20454;-69
2024/03/12 09:29:43;;;;;;;20.23;14.40;;;;;;;8.83;100.00;101252.53;7739385;23;20294;-68
2024/03/12 09:33:05;;;;;;;17.70;13.73;;;;;;;8.71;100.00;101257.97;7731574;23;20454;-69
2024/03/12 09:36:26;;;;;;;15.90;13.17;;;;;;;8.82;100.00;101258.03;7734347;23;20216;-68
2024/03/12 09:39:51;;;;;;;15.50;13.20;;;;;;;8.73;100.00;101264.09;7738550;23;20211;-68
2024/03/12 09:43:19;;;;;;;17.63;13.47;;;;;;;8.91;100.00;101265.41;7716485;23;20217;-70
2024/03/12 09:46:41;;;;;;;15.47;11.93;;;;;;;9.02;100.00;101256.50;7726097;23;20240;-70
2024/03/12 09:50:03;;;;;;;15.90;12.97;;;;;;;8.83;100.00;101260.59;7737904;23;20215;-69
2024/03/12 09:53:25;;;;;;;15.03;12.27;;;;;;;8.71;100.00;101263.34;7738721;23;20206;-68
2024/03/12 09:56:46;;;;;;;13.87;12.40;;;;;;;8.90;100.00;101266.38;7712552;23;20300;-69
2024/03/12 10:00:11;;;;;;;14.70;13.13;;;;;;;8.93;100.00;101271.50;7736667;23;20207;-68
2024/03/12 10:03:35;;;;;;;13.10;11.77;;;;;;;8.81;100.00;101270.63;7723831;23;20207;-69
2024/03/12 10:06:58;;;;;;;13.67;12.27;;;;;;;8.86;100.00;101272.97;7731240;23;20461;-69
2024/03/12 10:10:19;;;;;;;16.17;11.20;;;;;;;8.93;100.00;101266.13;7730939;23;20211;-69
2024/03/12 10:13:41;;;;;;;27.70;13.47;;;;;;;9.11;100.00;101272.81;7738759;22;20211;-69
2024/03/12 10:17:13;;;;;;;14.90;12.13;;;;;;;9.09;100.00;101280.16;7716374;23;20219;-70
2024/03/12 10:20:45;;;;;;;19.20;12.67;;;;;;;9.06;100.00;101266.06;7732665;23;20210;-70
2024/03/12 10:24:14;;;;;;;14.97;13.10;;;;;;;9.06;100.00;101264.22;7740210;23;20214;-69
2024/03/12 10:27:34;;;;;;;17.60;13.70;;;;;;;9.25;100.00;101269.94;7729334;23;20210;-68
2024/03/12 10:31:08;;;;;;;12.63;11.30;;;;;;;9.20;100.00;101279.34;7732151;23;20239;-69
2024/03/12 10:34:30;;;;;;;17.37;13.60;;;;;;;9.04;100.00;101278.75;7737126;23;20214;-69
2024/03/12 10:37:51;;;;;;;18.40;14.47;;;;;;;9.45;100.00;101277.31;7732227;23;20260;-68
2024/03/12 10:41:17;;;;;;;14.83;13.07;;;;;;;9.93;100.00;101271.75;7728561;23;20457;-69
2024/03/12 10:44:40;;;;;;;21.10;14.63;;;;;;;9.83;100.00;101268.03;7722966;23;20214;-69
2024/03/12 10:48:06;;;;;;;16.63;14.17;;;;;;;10.01;100.00;101278.19;7727964;23;20215;-69
2024/03/12 10:51:28;;;;;;;22.10;15.77;;;;;;;10.65;100.00;101279.25;7709791;23;20219;-70
2024/03/12 10:54:49;;;;;;;18.30;16.40;;;;;;;11.08;100.00;101271.97;7736622;23;20215;-69
2024/03/12 10:58:10;;;;;;;18.13;14.93;;;;;;;10.95;100.00;101279.38;7734849;23;20212;-69
2024/03/12 11:01:33;;;;;;;19.50;17.27;;;;;;;11.92;100.00;101271.00;7706248;23;20758;-69
2024/03/12 11:04:55;;;;;;;20.37;16.17;;;;;;;13.15;100.00;101266.88;7735477;23;20207;-69
2024/03/12 11:08:18;;;;;;;21.40;17.40;;;;;;;14.54;100.00;101258.75;7735085;23;20211;-70
2024/03/12 11:11:39;;;;;;;18.97;15.60;;;;;;;17.42;100.00;101249.69;7731937;23;20203;-70
2024/03/12 11:15:00;;;;;;;23.50;17.40;;;;;;;15.70;100.00;101245.91;7740024;23;21428;-69
2024/03/12 11:18:35;;;;;;;27.50;19.67;;;;;;;16.80;100.00;101247.59;7731586;23;20251;-69
2024/03/12 11:22:06;;;;;;;23.10;19.23;;;;;;;17.33;100.00;101244.44;7732358;23;20256;-69
2024/03/12 11:25:33;;;;;;;23.50;18.90;;;;;;;18.56;100.00;101239.38;7730010;23;20207;-69
2024/03/12 11:28:54;;;;;;;23.08;18.00;;;;;;;20.81;100.00;101234.41;7738355;23;20620;-69
2024/03/12 11:32:15;;;;;;;20.98;18.73;;;;;;;23.12;77.33;101236.66;7725302;23;20215;-69
2024/03/12 11:35:37;;;;;;;20.38;18.05;;;;;;;23.55;65.94;101238.00;7729175;23;20207;-69
2024/03/12 11:38:59;;;;;;;21.83;19.15;;;;;;;16.48;91.07;101237.44;7737412;23;20215;-69
2024/03/12 11:42:21;;;;;;;23.95;19.33;;;;;;;14.16;100.00;101251.63;7730592;23;20222;-69
2024/03/12 11:45:45;;;;;;;21.65;19.38;;;;;;;12.97;100.00;101256.88;7725183;23;20278;-68
2024/03/12 11:49:06;;;;;;;24.52;20.17;;;;;;;12.08;100.00;101252.44;7712969;23;20223;-71
2024/03/12 11:52:27;;;;;;;26.97;23.37;;;;;;;11.55;100.00;101265.22;7731435;23;20219;-68
2024/03/12 11:56:00;;;;;;;24.43;21.00;;;;;;;11.18;100.00;101264.81;7729835;23;20978;-70
2024/03/12 11:59:25;;;;;;;34.93;23.60;;;;;;;11.57;100.00;101265.09;7716638;23;20668;-70
2024/03/12 12:02:48;;;;;;;30.00;25.20;;;;;;;11.71;100.00;101259.38;7725736;23;20219;-69
2024/03/12 12:06:10;;;;;;;31.70;25.53;;;;;;;12.11;100.00;101259.41;7732215;23;20202;-70
2024/03/12 12:09:33;;;;;;;31.97;26.20;;;;;;;11.58;100.00;101269.47;7737078;23;20215;-68
2024/03/12 12:12:53;;;;;;;32.57;28.03;;;;;;;11.52;100.00;101264.63;7703020;23;20218;-70
2024/03/12 12:16:17;;;;;;;33.90;27.83;;;;;;;11.14;100.00;101273.28;7691171;23;20211;-70
2024/03/12 12:19:39;;;;;;;31.50;26.00;;;;;;;11.19;100.00;101269.25;7704968;23;20613;-69
2024/03/12 12:26:36;;;;;;;33.43;26.83;;;;;;;11.15;100.00;101266.94;7615848;23;20217;-68
2024/03/12 12:29:57;;;;;;;29.80;24.20;;;;;;;11.55;100.00;101264.38;7632122;23;20458;-70
2024/03/12 12:33:20;;;;;;;30.10;25.03;;;;;;;11.48;100.00;101273.97;7623646;23;20209;-69
2024/03/12 12:36:44;;;;;;;31.00;25.90;;;;;;;11.67;100.00;101266.03;7620720;23;20213;-69
2024/03/12 12:40:07;;;;;;;25.90;22.17;;;;;;;11.80;100.00;101272.09;7623703;23;20253;-69
2024/03/12 12:43:28;;;;;;;26.77;21.43;;;;;;;11.46;100.00;101268.72;7626762;23;20217;-69
2024/03/12 12:46:49;;;;;;;33.17;21.63;;;;;;;11.53;100.00;101256.41;7612814;23;20292;-69
2024/03/12 12:50:11;;;;;;;29.57;21.17;;;;;;;11.67;100.00;101257.94;7620056;23;20221;-69
2024/03/12 12:53:32;;;;;;;22.03;19.70;;;;;;;11.68;100.00;101271.28;7627991;23;20213;-68
2024/03/12 12:57:01;;;;;;;16.43;14.70;;;;;;;11.56;100.00;101266.94;7615605;23;20213;-68
2024/03/12 13:00:23;;;;;;;19.70;16.00;;;;;;;11.49;100.00;101268.47;7623698;23;20303;-68
2024/03/12 13:03:46;;;;;;;20.17;17.80;;;;;;;11.74;100.00;101265.38;7624831;23;20220;-67
2024/03/12 13:07:09;;;;;;;20.00;17.90;;;;;;;11.72;100.00;101263.78;7619682;23;20213;-69
2024/03/12 13:10:31;;;;;;;19.20;16.20;;;;;;;11.06;100.00;101273.97;7616602;23;20217;-69
2024/03/12 13:13:52;;;;;;;18.67;16.27;;;;;;;11.03;100.00;101276.94;7629206;23;20213;-67
2024/03/12 13:17:14;;;;;;;20.50;16.70;;;;;;;10.82;100.00;101270.63;7617878;23;20627;-67
2024/03/12 13:20:35;;;;;;;19.43;16.87;;;;;;;11.03;100.00;101271.53;7623389;23;20208;-68
2024/03/12 13:23:58;;;;;;;24.40;18.10;;;;;;;10.94;100.00;101272.31;7636011;23;20212;-69
2024/03/12 13:27:21;;;;;;;20.07;16.50;;;;;;;11.17;100.00;101265.81;7657154;23;20232;-68
2024/03/12 13:30:43;;;;;;;17.23;13.90;;;;;;;10.99;100.00;101280.00;7618153;23;20232;-68
2024/03/12 13:34:07;;;;;;;18.53;16.67;;;;;;;11.21;100.00;101271.81;7663195;23;20227;-68
2024/03/12 13:37:29;;;;;;;26.60;16.03;;;;;;;11.17;100.00;101273.06;7657432;23;20216;-68
2024/03/12 13:40:51;;;;;;;21.43;17.60;;;;;;;11.19;100.00;101282.75;7657703;23;20453;-69
2024/03/12 13:44:13;;;;;;;21.73;16.73;;;;;;;11.48;100.00;101265.88;7665359;23;20443;-69
2024/03/12 13:47:36;;;;;;;19.87;17.77;;;;;;;11.32;100.00;101277.16;7648526;23;20208;-69
2024/03/12 13:50:58;;;;;;;20.03;15.27;;;;;;;11.13;100.00;101268.91;7659178;23;20216;-67
2024/03/12 13:54:19;;;;;;;20.40;16.10;;;;;;;11.12;100.00;101272.56;7663483;23;20212;-69
2024/03/12 13:57:42;;;;;;;18.77;16.77;;;;;;;11.44;100.00;101278.78;7654618;23;20217;-68
2024/03/12 14:01:04;;;;;;;24.37;19.17;;;;;;;11.45;100.00;101279.66;7649369;23;20489;-69
2024/03/12 14:04:28;;;;;;;21.90;17.50;;;;;;;11.53;100.00;101291.50;7663200;23;20932;-69
2024/03/12 14:07:49;;;;;;;18.67;16.20;;;;;;;11.98;100.00;101286.66;7655426;23;20676;-68
2024/03/12 14:11:11;;;;;;;20.13;17.30;;;;;;;12.44;100.00;101283.41;7656250;23;20453;-68
2024/03/12 14:14:33;;;;;;;17.37;14.73;;;;;;;12.07;100.00;101282.28;7666132;23;20212;-68
2024/03/12 14:17:54;;;;;;;19.87;16.70;;;;;;;12.12;100.00;101280.06;7657537;23;20216;-69
2024/03/12 14:21:16;;;;;;;18.73;14.80;;;;;;;11.98;100.00;101286.66;7614848;23;20208;-68
2024/03/12 14:24:39;;;;;;;19.07;16.07;;;;;;;11.83;100.00;101280.75;7665495;23;20212;-69
2024/03/12 14:28:00;;;;;;;20.87;17.03;;;;;;;11.77;100.00;101286.69;7658722;23;20451;-69
2024/03/12 14:31:22;;;;;;;21.87;16.50;;;;;;;11.57;100.00;101284.84;7659481;23;20318;-68
2024/03/12 14:34:43;;;;;;;17.97;15.33;;;;;;;11.25;100.00;101303.81;7661784;23;20220;-68
2024/03/12 14:38:04;;;;;;;21.13;16.30;;;;;;;11.03;100.00;101294.97;7645568;23;20208;-67
2024/03/12 14:41:26;;;;;;;17.07;14.90;;;;;;;10.96;100.00;101299.13;7656598;23;20217;-69
2024/03/12 14:44:47;;;;;;;19.03;15.43;;;;;;;11.12;100.00;101303.13;7666337;23;20291;-69
2024/03/12 14:48:09;;;;;;;20.13;18.13;;;;;;;11.09;100.00;101298.00;7656605;23;21078;-68
2024/03/12 14:51:32;;;;;;;20.63;18.23;;;;;;;10.97;100.00;101314.34;7659535;23;20220;-69
2024/03/12 14:54:53;;;;;;;20.43;18.27;;;;;;;10.87;100.00;101306.16;7664429;23;20239;-69
2024/03/12 14:58:14;;;;;;;20.37;17.10;;;;;;;10.98;100.00;101299.88;7663428;23;20209;-68
2024/03/12 15:01:35;;;;;;;22.53;16.87;;;;;;;10.92;100.00;101312.03;7652156;23;20594;-68
2024/03/12 15:04:59;;;;;;;22.37;18.27;;;;;;;10.91;100.00;101313.00;7661678;23;20255;-68
2024/03/12 15:08:19;;;;;;;17.47;15.10;;;;;;;10.96;100.00;101301.84;7664194;23;20216;-69
2024/03/12 15:11:41;;;;;;;21.33;17.33;;;;;;;10.92;100.00;101298.53;7655768;23;20220;-68
2024/03/12 15:15:02;;;;;;;18.37;16.30;;;;;;;11.04;100.00;101305.59;7663046;23;20215;-69
2024/03/12 15:18:23;;;;;;;19.17;17.17;;;;;;;11.17;100.00;101306.28;7657199;23;20220;-69
2024/03/12 15:21:45;;;;;;;23.07;18.40;;;;;;;11.21;100.00;101313.16;7655723;23;20475;-68
2024/03/12 15:25:11;;;;;;;19.53;16.67;;;;;;;11.09;100.00;101305.22;7656619;23;20216;-69